sensor_id;sensor_type;location;lat;lon;timestamp;temperature;humidity
14031;DHT22;7090;49.436;8.490;2022-10-31T00:01:21;12.70;99.90
14031;DHT22;7090;49.436;8.490;2022-10-31T00:03:47;12.40;99.90
14031;DHT22;7090;49.436;8.490;2022-10-31T00:06:13;12.40;99.90
14031;DHT22;7090;49.436;8.490;2022-10-31T00:08:39;12.30;99.90
14031;DHT22;7090;49.436;8.490;2022-10-31T00:11:08;12.20;99.90
14031;DHT22;7090;49.436;8.490;2022-10-31T00:13:34;12.20;99.90
14031;DHT22;7090;49.436;8.490;2022-10-31T00:15:59;12.20;99.90
14031;DHT22;7090;49.436;8.490;2022-10-31T00:18:25;12.20;99.90
14031;DHT22;7090;49.436;8.490;2022-10-31T00:21:01;12.20;99.90
14031;DHT22;7090;49.436;8.490;2022-10-31T00:23:27;12.30;99.90
14031;DHT22;7090;49.436;8.490;2022-10-31T00:25:53;12.40;99.90
14031;DHT22;7090;49.436;8.490;2022-10-31T00:28:19;12.30;99.90
14031;DHT22;7090;49.436;8.490;2022-10-31T00:30:44;12.30;99.90
14031;DHT22;7090;49.436;8.490;2022-10-31T00:33:10;12.30;99.90
14031;DHT22;7090;49.436;8.490;2022-10-31T00:35:35;12.40;99.90
14031;DHT22;7090;49.436;8.490;2022-10-31T00:38:01;12.40;99.90
14031;DHT22;7090;49.436;8.490;2022-10-31T00:40:27;12.40;99.90
14031;DHT22;7090;49.436;8.490;2022-10-31T00:42:52;12.30;99.90
14031;DHT22;7090;49.436;8.490;2022-10-31T00:45:18;12.30;99.90
14031;DHT22;7090;49.436;8.490;2022-10-31T00:47:44;12.30;99.90
14031;DHT22;7090;49.436;8.490;2022-10-31T00:50:09;12.10;99.90
14031;DHT22;7090;49.436;8.490;2022-10-31T00:52:35;12.00;99.90
14031;DHT22;7090;49.436;8.490;2022-10-31T00:55:01;11.90;99.90
14031;DHT22;7090;49.436;8.490;2022-10-31T00:57:26;11.90;99.90
14031;DHT22;7090;49.436;8.490;2022-10-31T00:59:52;12.20;99.90
14031;DHT22;7090;49.436;8.490;2022-10-31T01:02:17;11.80;99.90
14031;DHT22;7090;49.436;8.490;2022-10-31T01:04:43;11.90;99.90
14031;DHT22;7090;49.436;8.490;2022-10-31T01:07:09;11.80;99.90
14031;DHT22;7090;49.436;8.490;2022-10-31T01:09:37;11.60;99.90
14031;DHT22;7090;49.436;8.490;2022-10-31T01:12:03;11.40;99.90
14031;DHT22;7090;49.436;8.490;2022-10-31T01:14:28;11.40;99.90
14031;DHT22;7090;49.436;8.490;2022-10-31T01:16:54;11.50;99.90
14031;DHT22;7090;49.436;8.490;2022-10-31T01:19:19;11.50;99.90
14031;DHT22;7090;49.436;8.490;2022-10-31T01:21:45;11.60;99.90
14031;DHT22;7090;49.436;8.490;2022-10-31T01:24:10;11.70;99.90
14031;DHT22;7090;49.436;8.490;2022-10-31T01:26:36;11.60;99.90
14031;DHT22;7090;49.436;8.490;2022-10-31T01:29:07;11.50;99.90
14031;DHT22;7090;49.436;8.490;2022-10-31T01:31:38;11.40;99.90
14031;DHT22;7090;49.436;8.490;2022-10-31T01:34:05;11.50;99.90
14031;DHT22;7090;49.436;8.490;2022-10-31T01:36:33;11.40;99.90
14031;DHT22;7090;49.436;8.490;2022-10-31T01:39:02;11.40;99.90
14031;DHT22;7090;49.436;8.490;2022-10-31T01:41:30;11.30;99.90
14031;DHT22;7090;49.436;8.490;2022-10-31T01:43:58;11.40;99.90
14031;DHT22;7090;49.436;8.490;2022-10-31T01:46:34;11.50;99.90
14031;DHT22;7090;49.436;8.490;2022-10-31T01:49:04;11.40;99.90
14031;DHT22;7090;49.436;8.490;2022-10-31T01:51:33;11.30;99.90
14031;DHT22;7090;49.436;8.490;2022-10-31T01:54:04;11.30;99.90
14031;DHT22;7090;49.436;8.490;2022-10-31T01:56:32;11.40;99.90
14031;DHT22;7090;49.436;8.490;2022-10-31T01:59:00;11.50;99.90
14031;DHT22;7090;49.436;8.490;2022-10-31T02:01:27;11.40;99.90
14031;DHT22;7090;49.436;8.490;2022-10-31T02:03:54;11.40;99.90
14031;DHT22;7090;49.436;8.490;2022-10-31T02:06:33;11.40;99.90
14031;DHT22;7090;49.436;8.490;2022-10-31T02:09:03;11.30;99.90
14031;DHT22;7090;49.436;8.490;2022-10-31T02:11:29;11.30;99.90
14031;DHT22;7090;49.436;8.490;2022-10-31T02:13:56;11.20;99.90
14031;DHT22;7090;49.436;8.490;2022-10-31T02:16:23;11.30;99.90
14031;DHT22;7090;49.436;8.490;2022-10-31T02:18:49;11.20;99.90
14031;DHT22;7090;49.436;8.490;2022-10-31T02:21:34;11.20;99.90
14031;DHT22;7090;49.436;8.490;2022-10-31T02:24:48;11.20;99.90
14031;DHT22;7090;49.436;8.490;2022-10-31T02:30:18;11.10;99.90
14031;DHT22;7090;49.436;8.490;2022-10-31T02:32:57;11.00;99.90
14031;DHT22;7090;49.436;8.490;2022-10-31T02:35:50;11.20;99.90
14031;DHT22;7090;49.436;8.490;2022-10-31T02:38:25;11.40;99.90
14031;DHT22;7090;49.436;8.490;2022-10-31T02:41:04;11.40;99.90
14031;DHT22;7090;49.436;8.490;2022-10-31T02:44:09;11.50;99.90
14031;DHT22;7090;49.436;8.490;2022-10-31T02:47:03;11.50;99.90
14031;DHT22;7090;49.436;8.490;2022-10-31T02:49:56;11.60;99.90
14031;DHT22;7090;49.436;8.490;2022-10-31T02:52:28;11.60;99.90
14031;DHT22;7090;49.436;8.490;2022-10-31T02:54:54;11.60;99.90
14031;DHT22;7090;49.436;8.490;2022-10-31T02:57:30;11.40;99.90
14031;DHT22;7090;49.436;8.490;2022-10-31T03:00:07;11.40;99.90
14031;DHT22;7090;49.436;8.490;2022-10-31T03:10:43;11.50;99.90
14031;DHT22;7090;49.436;8.490;2022-10-31T03:13:34;11.40;99.90
14031;DHT22;7090;49.436;8.490;2022-10-31T03:16:23;11.30;99.90
14031;DHT22;7090;49.436;8.490;2022-10-31T03:19:06;11.20;99.90
14031;DHT22;7090;49.436;8.490;2022-10-31T03:21:42;11.20;99.90
14031;DHT22;7090;49.436;8.490;2022-10-31T03:24:10;11.20;99.90
14031;DHT22;7090;49.436;8.490;2022-10-31T03:26:41;11.10;99.90
14031;DHT22;7090;49.436;8.490;2022-10-31T03:29:10;11.00;99.90
14031;DHT22;7090;49.436;8.490;2022-10-31T03:31:40;10.90;99.90
14031;DHT22;7090;49.436;8.490;2022-10-31T03:34:08;10.90;99.90
14031;DHT22;7090;49.436;8.490;2022-10-31T03:36:37;10.80;99.90
14031;DHT22;7090;49.436;8.490;2022-10-31T03:39:05;10.70;99.90
14031;DHT22;7090;49.436;8.490;2022-10-31T03:41:37;10.70;99.90
14031;DHT22;7090;49.436;8.490;2022-10-31T03:44:08;10.90;99.90
14031;DHT22;7090;49.436;8.490;2022-10-31T03:46:36;10.80;99.90
14031;DHT22;7090;49.436;8.490;2022-10-31T03:49:02;10.70;99.90
14031;DHT22;7090;49.436;8.490;2022-10-31T03:51:32;10.70;99.90
14031;DHT22;7090;49.436;8.490;2022-10-31T03:56:50;10.80;99.90
14031;DHT22;7090;49.436;8.490;2022-10-31T03:59:40;10.80;99.90
14031;DHT22;7090;49.436;8.490;2022-10-31T04:02:11;10.80;99.90
14031;DHT22;7090;49.436;8.490;2022-10-31T04:04:38;10.70;99.90
14031;DHT22;7090;49.436;8.490;2022-10-31T04:07:06;10.70;99.90
14031;DHT22;7090;49.436;8.490;2022-10-31T04:09:35;10.70;99.90
14031;DHT22;7090;49.436;8.490;2022-10-31T04:12:03;10.70;99.90
14031;DHT22;7090;49.436;8.490;2022-10-31T04:14:32;10.80;99.90
14031;DHT22;7090;49.436;8.490;2022-10-31T04:17:01;10.80;99.90
14031;DHT22;7090;49.436;8.490;2022-10-31T04:19:27;10.80;99.90
14031;DHT22;7090;49.436;8.490;2022-10-31T04:21:53;10.80;99.90
14031;DHT22;7090;49.436;8.490;2022-10-31T04:24:18;10.70;99.90
14031;DHT22;7090;49.436;8.490;2022-10-31T04:26:44;10.70;99.90
14031;DHT22;7090;49.436;8.490;2022-10-31T04:29:09;10.70;99.90
14031;DHT22;7090;49.436;8.490;2022-10-31T04:31:35;10.50;99.90
14031;DHT22;7090;49.436;8.490;2022-10-31T04:34:00;10.50;99.90
14031;DHT22;7090;49.436;8.490;2022-10-31T04:36:26;10.40;99.90
14031;DHT22;7090;49.436;8.490;2022-10-31T04:38:52;10.30;99.90
14031;DHT22;7090;49.436;8.490;2022-10-31T04:41:17;10.40;99.90
14031;DHT22;7090;49.436;8.490;2022-10-31T04:43:43;10.40;99.90
14031;DHT22;7090;49.436;8.490;2022-10-31T04:46:08;10.50;99.90
14031;DHT22;7090;49.436;8.490;2022-10-31T04:48:34;10.50;99.90
14031;DHT22;7090;49.436;8.490;2022-10-31T04:51:00;10.50;99.90
14031;DHT22;7090;49.436;8.490;2022-10-31T04:53:26;10.50;99.90
14031;DHT22;7090;49.436;8.490;2022-10-31T04:55:52;10.50;99.90
14031;DHT22;7090;49.436;8.490;2022-10-31T04:58:17;10.50;99.90
14031;DHT22;7090;49.436;8.490;2022-10-31T05:00:43;10.40;99.90
14031;DHT22;7090;49.436;8.490;2022-10-31T05:03:08;10.40;99.90
14031;DHT22;7090;49.436;8.490;2022-10-31T05:05:34;10.40;99.90
14031;DHT22;7090;49.436;8.490;2022-10-31T05:08:00;10.30;99.90
14031;DHT22;7090;49.436;8.490;2022-10-31T05:10:27;10.30;99.90
14031;DHT22;7090;49.436;8.490;2022-10-31T05:12:56;10.30;99.90
14031;DHT22;7090;49.436;8.490;2022-10-31T05:15:23;10.30;99.90
14031;DHT22;7090;49.436;8.490;2022-10-31T05:17:50;10.40;99.90
14031;DHT22;7090;49.436;8.490;2022-10-31T05:20:17;10.40;99.90
14031;DHT22;7090;49.436;8.490;2022-10-31T05:22:47;10.30;99.90
14031;DHT22;7090;49.436;8.490;2022-10-31T05:25:14;10.20;99.90
14031;DHT22;7090;49.436;8.490;2022-10-31T05:27:44;10.20;99.90
14031;DHT22;7090;49.436;8.490;2022-10-31T05:30:11;10.20;99.90
14031;DHT22;7090;49.436;8.490;2022-10-31T05:32:42;10.10;99.90
14031;DHT22;7090;49.436;8.490;2022-10-31T05:35:11;10.10;99.90
14031;DHT22;7090;49.436;8.490;2022-10-31T05:37:37;10.20;99.90
14031;DHT22;7090;49.436;8.490;2022-10-31T05:40:04;10.20;99.90
14031;DHT22;7090;49.436;8.490;2022-10-31T05:42:30;10.20;99.90
14031;DHT22;7090;49.436;8.490;2022-10-31T05:44:55;10.20;99.90
14031;DHT22;7090;49.436;8.490;2022-10-31T05:47:21;10.20;99.90
14031;DHT22;7090;49.436;8.490;2022-10-31T05:49:46;10.10;99.90
14031;DHT22;7090;49.436;8.490;2022-10-31T05:52:12;10.10;99.90
14031;DHT22;7090;49.436;8.490;2022-10-31T05:54:37;10.10;99.90
14031;DHT22;7090;49.436;8.490;2022-10-31T05:57:03;10.20;99.90
14031;DHT22;7090;49.436;8.490;2022-10-31T05:59:29;10.10;99.90
14031;DHT22;7090;49.436;8.490;2022-10-31T06:01:54;10.00;99.90
14031;DHT22;7090;49.436;8.490;2022-10-31T06:04:20;9.90;99.90
14031;DHT22;7090;49.436;8.490;2022-10-31T06:06:45;9.90;99.90
14031;DHT22;7090;49.436;8.490;2022-10-31T06:09:11;9.70;99.90
14031;DHT22;7090;49.436;8.490;2022-10-31T06:11:36;9.80;99.90
14031;DHT22;7090;49.436;8.490;2022-10-31T06:14:02;9.90;99.90
14031;DHT22;7090;49.436;8.490;2022-10-31T06:16:28;10.00;99.90
14031;DHT22;7090;49.436;8.490;2022-10-31T06:18:54;10.00;99.90
14031;DHT22;7090;49.436;8.490;2022-10-31T06:21:19;10.00;99.90
14031;DHT22;7090;49.436;8.490;2022-10-31T06:23:45;9.90;99.90
14031;DHT22;7090;49.436;8.490;2022-10-31T06:26:10;9.90;99.90
14031;DHT22;7090;49.436;8.490;2022-10-31T06:28:36;9.90;99.90
14031;DHT22;7090;49.436;8.490;2022-10-31T06:31:01;9.80;99.90
14031;DHT22;7090;49.436;8.490;2022-10-31T06:33:27;9.90;99.90
14031;DHT22;7090;49.436;8.490;2022-10-31T06:35:52;10.10;99.90
14031;DHT22;7090;49.436;8.490;2022-10-31T06:38:18;10.10;99.90
14031;DHT22;7090;49.436;8.490;2022-10-31T06:40:43;10.20;99.90
14031;DHT22;7090;49.436;8.490;2022-10-31T06:43:09;10.20;99.90
14031;DHT22;7090;49.436;8.490;2022-10-31T06:45:36;10.40;99.90
14031;DHT22;7090;49.436;8.490;2022-10-31T06:48:02;10.50;99.90
14031;DHT22;7090;49.436;8.490;2022-10-31T06:50:28;10.60;99.90
14031;DHT22;7090;49.436;8.490;2022-10-31T06:52:56;10.80;99.90
14031;DHT22;7090;49.436;8.490;2022-10-31T06:55:22;10.90;99.90
14031;DHT22;7090;49.436;8.490;2022-10-31T06:57:53;11.10;99.90
14031;DHT22;7090;49.436;8.490;2022-10-31T07:00:19;11.20;99.90
14031;DHT22;7090;49.436;8.490;2022-10-31T07:03:03;11.30;99.90
14031;DHT22;7090;49.436;8.490;2022-10-31T07:05:30;11.50;99.90
14031;DHT22;7090;49.436;8.490;2022-10-31T07:08:01;11.60;99.90
14031;DHT22;7090;49.436;8.490;2022-10-31T07:10:28;11.80;99.90
14031;DHT22;7090;49.436;8.490;2022-10-31T07:12:55;12.00;99.90
14031;DHT22;7090;49.436;8.490;2022-10-31T07:15:22;12.20;99.90
14031;DHT22;7090;49.436;8.490;2022-10-31T07:17:48;12.40;99.90
14031;DHT22;7090;49.436;8.490;2022-10-31T07:20:13;12.50;99.90
14031;DHT22;7090;49.436;8.490;2022-10-31T07:22:39;12.70;99.90
14031;DHT22;7090;49.436;8.490;2022-10-31T07:25:05;12.70;99.90
14031;DHT22;7090;49.436;8.490;2022-10-31T07:27:41;12.80;99.90
14031;DHT22;7090;49.436;8.490;2022-10-31T07:30:09;12.90;99.90
14031;DHT22;7090;49.436;8.490;2022-10-31T07:32:46;12.80;99.90
14031;DHT22;7090;49.436;8.490;2022-10-31T07:35:14;13.00;99.90
14031;DHT22;7090;49.436;8.490;2022-10-31T07:37:39;13.40;99.90
14031;DHT22;7090;49.436;8.490;2022-10-31T07:40:06;13.50;99.90
14031;DHT22;7090;49.436;8.490;2022-10-31T07:42:43;13.70;99.90
14031;DHT22;7090;49.436;8.490;2022-10-31T07:45:15;13.80;99.90
14031;DHT22;7090;49.436;8.490;2022-10-31T07:47:51;14.00;99.90
14031;DHT22;7090;49.436;8.490;2022-10-31T07:50:22;14.20;99.90
14031;DHT22;7090;49.436;8.490;2022-10-31T07:52:57;14.30;99.90
14031;DHT22;7090;49.436;8.490;2022-10-31T07:55:22;14.70;99.90
14031;DHT22;7090;49.436;8.490;2022-10-31T07:57:56;14.80;99.90
14031;DHT22;7090;49.436;8.490;2022-10-31T08:00:22;15.00;99.90
14031;DHT22;7090;49.436;8.490;2022-10-31T08:02:47;15.00;99.90
14031;DHT22;7090;49.436;8.490;2022-10-31T08:05:13;14.80;99.90
14031;DHT22;7090;49.436;8.490;2022-10-31T08:07:38;15.10;99.90
14031;DHT22;7090;49.436;8.490;2022-10-31T08:10:04;15.20;99.90
14031;DHT22;7090;49.436;8.490;2022-10-31T08:12:30;15.40;99.90
14031;DHT22;7090;49.436;8.490;2022-10-31T08:14:56;15.50;99.90
14031;DHT22;7090;49.436;8.490;2022-10-31T08:17:21;15.50;99.90
14031;DHT22;7090;49.436;8.490;2022-10-31T08:19:47;15.80;99.90
14031;DHT22;7090;49.436;8.490;2022-10-31T08:22:12;15.90;99.90
14031;DHT22;7090;49.436;8.490;2022-10-31T08:24:38;16.10;99.90
14031;DHT22;7090;49.436;8.490;2022-10-31T08:27:03;16.40;99.90
14031;DHT22;7090;49.436;8.490;2022-10-31T08:29:29;16.80;99.90
14031;DHT22;7090;49.436;8.490;2022-10-31T08:31:55;17.20;99.90
14031;DHT22;7090;49.436;8.490;2022-10-31T08:34:22;17.40;99.90
14031;DHT22;7090;49.436;8.490;2022-10-31T08:36:48;17.50;99.90
14031;DHT22;7090;49.436;8.490;2022-10-31T08:39:13;17.70;99.90
14031;DHT22;7090;49.436;8.490;2022-10-31T08:41:39;17.80;99.90
14031;DHT22;7090;49.436;8.490;2022-10-31T08:44:04;17.80;99.90
14031;DHT22;7090;49.436;8.490;2022-10-31T08:46:30;18.00;99.90
14031;DHT22;7090;49.436;8.490;2022-10-31T08:48:56;18.30;99.90
14031;DHT22;7090;49.436;8.490;2022-10-31T08:51:22;18.10;99.90
14031;DHT22;7090;49.436;8.490;2022-10-31T08:53:47;17.70;99.90
14031;DHT22;7090;49.436;8.490;2022-10-31T08:56:13;17.20;99.90
14031;DHT22;7090;49.436;8.490;2022-10-31T08:58:39;16.90;99.90
14031;DHT22;7090;49.436;8.490;2022-10-31T09:01:04;16.90;99.90
14031;DHT22;7090;49.436;8.490;2022-10-31T09:03:30;16.80;99.90
14031;DHT22;7090;49.436;8.490;2022-10-31T09:05:59;17.00;99.90
14031;DHT22;7090;49.436;8.490;2022-10-31T09:08:25;17.10;99.90
14031;DHT22;7090;49.436;8.490;2022-10-31T09:10:52;17.50;99.90
14031;DHT22;7090;49.436;8.490;2022-10-31T09:13:21;17.80;99.90
14031;DHT22;7090;49.436;8.490;2022-10-31T09:15:48;17.80;99.90
14031;DHT22;7090;49.436;8.490;2022-10-31T09:18:20;18.10;99.90
14031;DHT22;7090;49.436;8.490;2022-10-31T09:20:47;18.40;99.90
14031;DHT22;7090;49.436;8.490;2022-10-31T09:23:15;18.20;99.90
14031;DHT22;7090;49.436;8.490;2022-10-31T09:25:41;18.50;99.90
14031;DHT22;7090;49.436;8.490;2022-10-31T09:28:10;18.70;99.90
14031;DHT22;7090;49.436;8.490;2022-10-31T09:30:36;18.70;99.90
14031;DHT22;7090;49.436;8.490;2022-10-31T09:33:04;18.60;99.90
14031;DHT22;7090;49.436;8.490;2022-10-31T09:35:30;18.70;99.90
14031;DHT22;7090;49.436;8.490;2022-10-31T09:37:57;18.80;99.90
14031;DHT22;7090;49.436;8.490;2022-10-31T09:46:06;18.70;99.90
14031;DHT22;7090;49.436;8.490;2022-10-31T09:48:42;19.00;99.90
14031;DHT22;7090;49.436;8.490;2022-10-31T09:51:53;19.10;99.90
14031;DHT22;7090;49.436;8.490;2022-10-31T09:56:43;18.80;99.90
14031;DHT22;7090;49.436;8.490;2022-10-31T09:59:36;19.30;99.90
14031;DHT22;7090;49.436;8.490;2022-10-31T10:02:37;19.70;99.90
14031;DHT22;7090;49.436;8.490;2022-10-31T10:05:09;20.00;99.90
14031;DHT22;7090;49.436;8.490;2022-10-31T10:07:44;20.50;99.90
14031;DHT22;7090;49.436;8.490;2022-10-31T10:25:31;20.70;1.00
14031;DHT22;7090;49.436;8.490;2022-10-31T10:28:10;19.30;99.90
14031;DHT22;7090;49.436;8.490;2022-10-31T10:30:47;19.20;1.00
14031;DHT22;7090;49.436;8.490;2022-10-31T10:33:27;20.10;1.00
14031;DHT22;7090;49.436;8.490;2022-10-31T10:35:55;20.50;1.00
14031;DHT22;7090;49.436;8.490;2022-10-31T10:41:05;20.10;1.00
14031;DHT22;7090;49.436;8.490;2022-10-31T10:43:36;20.10;1.00
14031;DHT22;7090;49.436;8.490;2022-10-31T10:51:46;20.90;99.90
14031;DHT22;7090;49.436;8.490;2022-10-31T10:54:43;21.10;99.90
14031;DHT22;7090;49.436;8.490;2022-10-31T10:57:38;21.50;99.90
14031;DHT22;7090;49.436;8.490;2022-10-31T11:00:22;21.90;82.00
14031;DHT22;7090;49.436;8.490;2022-10-31T11:02:49;22.30;1.00
14031;DHT22;7090;49.436;8.490;2022-10-31T11:05:33;22.40;1.00
14031;DHT22;7090;49.436;8.490;2022-10-31T11:07:59;22.30;99.90
14031;DHT22;7090;49.436;8.490;2022-10-31T11:10:25;21.90;1.00
14031;DHT22;7090;49.436;8.490;2022-10-31T11:13:20;21.50;1.00
14031;DHT22;7090;49.436;8.490;2022-10-31T11:15:54;21.90;1.00
14031;DHT22;7090;49.436;8.490;2022-10-31T11:18:23;21.80;1.00
14031;DHT22;7090;49.436;8.490;2022-10-31T11:20:52;21.80;1.00
14031;DHT22;7090;49.436;8.490;2022-10-31T11:23:20;22.10;1.00
14031;DHT22;7090;49.436;8.490;2022-10-31T11:26:06;22.30;1.00
14031;DHT22;7090;49.436;8.490;2022-10-31T11:28:33;22.40;1.00
14031;DHT22;7090;49.436;8.490;2022-10-31T11:31:22;22.20;99.90
14031;DHT22;7090;49.436;8.490;2022-10-31T11:33:48;22.20;99.90
14031;DHT22;7090;49.436;8.490;2022-10-31T11:38:43;21.90;1.00
14031;DHT22;7090;49.436;8.490;2022-10-31T11:41:11;21.60;1.00
14031;DHT22;7090;49.436;8.490;2022-10-31T11:43:38;21.60;1.00
14031;DHT22;7090;49.436;8.490;2022-10-31T11:46:14;21.60;1.00
14031;DHT22;7090;49.436;8.490;2022-10-31T11:48:47;21.50;1.00
14031;DHT22;7090;49.436;8.490;2022-10-31T11:51:13;21.60;1.00
14031;DHT22;7090;49.436;8.490;2022-10-31T11:53:51;21.40;1.00
14031;DHT22;7090;49.436;8.490;2022-10-31T11:56:17;21.50;99.90
14031;DHT22;7090;49.436;8.490;2022-10-31T11:58:43;21.70;99.90
14031;DHT22;7090;49.436;8.490;2022-10-31T12:01:25;21.80;99.90
14031;DHT22;7090;49.436;8.490;2022-10-31T12:04:08;21.70;99.90
14031;DHT22;7090;49.436;8.490;2022-10-31T12:06:39;21.70;99.90
14031;DHT22;7090;49.436;8.490;2022-10-31T12:17:35;21.50;99.90
14031;DHT22;7090;49.436;8.490;2022-10-31T12:25:34;21.00;99.90
14031;DHT22;7090;49.436;8.490;2022-10-31T12:41:52;20.00;99.90
14031;DHT22;7090;49.436;8.490;2022-10-31T12:44:40;19.90;1.00
14031;DHT22;7090;49.436;8.490;2022-10-31T12:50:20;19.90;1.00
14031;DHT22;7090;49.436;8.490;2022-10-31T12:55:43;19.80;1.00
14031;DHT22;7090;49.436;8.490;2022-10-31T13:01:35;20.00;1.00
14031;DHT22;7090;49.436;8.490;2022-10-31T13:06:50;20.30;99.90
14031;DHT22;7090;49.436;8.490;2022-10-31T13:09:20;20.20;99.90
14031;DHT22;7090;49.436;8.490;2022-10-31T13:12:15;20.10;1.00
14031;DHT22;7090;49.436;8.490;2022-10-31T13:14:51;20.40;99.90
14031;DHT22;7090;49.436;8.490;2022-10-31T13:17:29;20.50;1.00
14031;DHT22;7090;49.436;8.490;2022-10-31T13:21:07;20.70;1.00
14031;DHT22;7090;49.436;8.490;2022-10-31T13:23:11;20.30;1.00
14031;DHT22;7090;49.436;8.490;2022-10-31T13:25:46;19.90;1.00
14031;DHT22;7090;49.436;8.490;2022-10-31T13:30:59;19.90;99.90
14031;DHT22;7090;49.436;8.490;2022-10-31T13:33:44;19.60;1.00
14031;DHT22;7090;49.436;8.490;2022-10-31T13:36:18;19.50;1.00
14031;DHT22;7090;49.436;8.490;2022-10-31T13:39:08;19.40;99.90
14031;DHT22;7090;49.436;8.490;2022-10-31T13:44:27;20.40;99.90
14031;DHT22;7090;49.436;8.490;2022-10-31T13:46:55;20.70;1.00
14031;DHT22;7090;49.436;8.490;2022-10-31T13:52:25;21.10;1.00
14031;DHT22;7090;49.436;8.490;2022-10-31T13:54:53;21.20;1.00
14031;DHT22;7090;49.436;8.490;2022-10-31T13:57:43;20.70;1.00
14031;DHT22;7090;49.436;8.490;2022-10-31T14:02:49;20.40;1.00
14031;DHT22;7090;49.436;8.490;2022-10-31T14:05:33;20.60;1.00
14031;DHT22;7090;49.436;8.490;2022-10-31T14:08:01;20.70;1.00
14031;DHT22;7090;49.436;8.490;2022-10-31T14:13:34;20.60;1.00
14031;DHT22;7090;49.436;8.490;2022-10-31T14:16:16;20.50;1.00
14031;DHT22;7090;49.436;8.490;2022-10-31T14:18:46;20.40;1.00
14031;DHT22;7090;49.436;8.490;2022-10-31T14:23:48;20.70;1.00
14031;DHT22;7090;49.436;8.490;2022-10-31T14:34:36;21.10;1.00
14031;DHT22;7090;49.436;8.490;2022-10-31T14:37:23;21.00;1.00
14031;DHT22;7090;49.436;8.490;2022-10-31T14:48:17;20.40;1.00
14031;DHT22;7090;49.436;8.490;2022-10-31T14:50:59;20.20;99.90
14031;DHT22;7090;49.436;8.490;2022-10-31T14:53:30;19.90;1.00
14031;DHT22;7090;49.436;8.490;2022-10-31T14:55:57;19.50;1.00
14031;DHT22;7090;49.436;8.490;2022-10-31T14:58:43;19.30;1.00
14031;DHT22;7090;49.436;8.490;2022-10-31T15:01:23;19.30;1.00
14031;DHT22;7090;49.436;8.490;2022-10-31T15:03:50;18.90;99.90
14031;DHT22;7090;49.436;8.490;2022-10-31T15:06:19;18.80;99.90
14031;DHT22;7090;49.436;8.490;2022-10-31T15:08:49;18.70;99.90
14031;DHT22;7090;49.436;8.490;2022-10-31T15:11:26;18.70;99.90
14031;DHT22;7090;49.436;8.490;2022-10-31T15:13:55;18.90;99.90
14031;DHT22;7090;49.436;8.490;2022-10-31T15:16:38;18.90;99.90
14031;DHT22;7090;49.436;8.490;2022-10-31T15:19:09;18.90;99.90
14031;DHT22;7090;49.436;8.490;2022-10-31T15:21:38;18.90;99.90
14031;DHT22;7090;49.436;8.490;2022-10-31T15:24:05;18.50;1.00
14031;DHT22;7090;49.436;8.490;2022-10-31T15:26:35;18.40;1.00
14031;DHT22;7090;49.436;8.490;2022-10-31T15:29:05;18.40;1.00
14031;DHT22;7090;49.436;8.490;2022-10-31T15:31:31;18.50;1.00
14031;DHT22;7090;49.436;8.490;2022-10-31T15:34:06;18.40;1.00
14031;DHT22;7090;49.436;8.490;2022-10-31T15:36:37;18.30;1.00
14031;DHT22;7090;49.436;8.490;2022-10-31T15:39:02;17.90;27.50
14031;DHT22;7090;49.436;8.490;2022-10-31T15:41:48;17.60;99.90
14031;DHT22;7090;49.436;8.490;2022-10-31T15:44:23;17.70;99.90
14031;DHT22;7090;49.436;8.490;2022-10-31T15:46:55;17.70;99.90
14031;DHT22;7090;49.436;8.490;2022-10-31T15:51:53;17.20;99.90
14031;DHT22;7090;49.436;8.490;2022-10-31T15:54:18;17.10;99.90
14031;DHT22;7090;49.436;8.490;2022-10-31T15:56:44;17.20;99.90
14031;DHT22;7090;49.436;8.490;2022-10-31T15:59:21;17.20;99.90
14031;DHT22;7090;49.436;8.490;2022-10-31T16:01:59;17.20;99.90
14031;DHT22;7090;49.436;8.490;2022-10-31T16:04:25;17.30;99.90
14031;DHT22;7090;49.436;8.490;2022-10-31T16:07:10;17.20;99.90
14031;DHT22;7090;49.436;8.490;2022-10-31T16:09:37;17.30;99.90
14031;DHT22;7090;49.436;8.490;2022-10-31T16:12:14;17.20;99.90
14031;DHT22;7090;49.436;8.490;2022-10-31T16:14:41;17.20;99.90
14031;DHT22;7090;49.436;8.490;2022-10-31T16:17:12;17.00;99.90
14031;DHT22;7090;49.436;8.490;2022-10-31T16:19:50;17.00;99.90
14031;DHT22;7090;49.436;8.490;2022-10-31T16:22:31;17.00;99.90
14031;DHT22;7090;49.436;8.490;2022-10-31T16:27:33;16.90;99.90
14031;DHT22;7090;49.436;8.490;2022-10-31T16:30:00;16.80;99.90
14031;DHT22;7090;49.436;8.490;2022-10-31T16:37:33;16.80;99.90
14031;DHT22;7090;49.436;8.490;2022-10-31T16:39:59;16.80;99.90
14031;DHT22;7090;49.436;8.490;2022-10-31T16:42:26;16.70;99.90
14031;DHT22;7090;49.436;8.490;2022-10-31T16:44:52;16.60;99.90
14031;DHT22;7090;49.436;8.490;2022-10-31T16:47:18;16.50;99.90
14031;DHT22;7090;49.436;8.490;2022-10-31T16:49:46;16.40;99.90
14031;DHT22;7090;49.436;8.490;2022-10-31T16:52:12;16.40;99.90
14031;DHT22;7090;49.436;8.490;2022-10-31T16:54:38;16.30;99.90
14031;DHT22;7090;49.436;8.490;2022-10-31T16:57:05;16.30;99.90
14031;DHT22;7090;49.436;8.490;2022-10-31T16:59:31;16.30;99.90
14031;DHT22;7090;49.436;8.490;2022-10-31T17:01:59;16.20;99.90
14031;DHT22;7090;49.436;8.490;2022-10-31T17:04:25;16.10;99.90
14031;DHT22;7090;49.436;8.490;2022-10-31T17:06:50;16.20;99.90
14031;DHT22;7090;49.436;8.490;2022-10-31T17:09:16;16.10;99.90
14031;DHT22;7090;49.436;8.490;2022-10-31T17:11:47;15.90;99.90
14031;DHT22;7090;49.436;8.490;2022-10-31T17:14:14;15.80;99.90
14031;DHT22;7090;49.436;8.490;2022-10-31T17:16:40;15.70;99.90
14031;DHT22;7090;49.436;8.490;2022-10-31T17:19:06;15.80;99.90
14031;DHT22;7090;49.436;8.490;2022-10-31T17:21:33;15.60;99.90
14031;DHT22;7090;49.436;8.490;2022-10-31T17:23:58;15.60;99.90
14031;DHT22;7090;49.436;8.490;2022-10-31T17:26:24;15.60;99.90
14031;DHT22;7090;49.436;8.490;2022-10-31T17:28:49;15.60;99.90
14031;DHT22;7090;49.436;8.490;2022-10-31T17:31:35;15.60;99.90
14031;DHT22;7090;49.436;8.490;2022-10-31T17:34:03;15.60;99.90
14031;DHT22;7090;49.436;8.490;2022-10-31T17:36:31;15.50;99.90
14031;DHT22;7090;49.436;8.490;2022-10-31T17:38:57;15.40;99.90
14031;DHT22;7090;49.436;8.490;2022-10-31T17:41:23;15.30;99.90
14031;DHT22;7090;49.436;8.490;2022-10-31T17:43:56;15.10;99.90
14031;DHT22;7090;49.436;8.490;2022-10-31T17:46:22;14.80;99.90
14031;DHT22;7090;49.436;8.490;2022-10-31T17:48:47;14.80;99.90
14031;DHT22;7090;49.436;8.490;2022-10-31T17:51:13;14.70;99.90
14031;DHT22;7090;49.436;8.490;2022-10-31T17:53:39;14.80;99.90
14031;DHT22;7090;49.436;8.490;2022-10-31T17:56:06;14.70;99.90
14031;DHT22;7090;49.436;8.490;2022-10-31T17:58:34;14.60;99.90
14031;DHT22;7090;49.436;8.490;2022-10-31T18:01:00;14.60;99.90
14031;DHT22;7090;49.436;8.490;2022-10-31T18:03:26;14.60;99.90
14031;DHT22;7090;49.436;8.490;2022-10-31T18:05:56;14.50;99.90
14031;DHT22;7090;49.436;8.490;2022-10-31T18:08:26;14.50;99.90
14031;DHT22;7090;49.436;8.490;2022-10-31T18:10:53;14.40;99.90
14031;DHT22;7090;49.436;8.490;2022-10-31T18:13:19;14.40;99.90
14031;DHT22;7090;49.436;8.490;2022-10-31T18:15:44;14.50;99.90
14031;DHT22;7090;49.436;8.490;2022-10-31T18:18:10;14.50;99.90
14031;DHT22;7090;49.436;8.490;2022-10-31T18:20:36;14.40;99.90